sensor_id;sensor_type;location;lat;lon;timestamp;pressure;altitude;pressure_sealevel;temperature;humidity
54248;BME280;40161;39.768;2.722;2023-01-26T00:00:46;101563.03;;;8.05;89.07
54248;BME280;40161;39.768;2.722;2023-01-26T00:03:11;101541.16;;;8.05;88.91
54248;BME280;40161;39.768;2.722;2023-01-26T00:05:39;101567.66;;;8.14;88.99
54248;BME280;40161;39.768;2.722;2023-01-26T00:08:06;101559.28;;;8.10;89.05
54248;BME280;40161;39.768;2.722;2023-01-26T00:10:31;101548.06;;;8.03;88.86
54248;BME280;40161;39.768;2.722;2023-01-26T00:12:57;101525.91;;;7.96;89.46
54248;BME280;40161;39.768;2.722;2023-01-26T00:15:22;101539.31;;;8.18;89.73
54248;BME280;40161;39.768;2.722;2023-01-26T00:17:48;101564.06;;;8.22;88.51
54248;BME280;40161;39.768;2.722;2023-01-26T00:20:16;101559.44;;;8.14;90.50
54248;BME280;40161;39.768;2.722;2023-01-26T00:22:42;101551.53;;;8.21;89.89
54248;BME280;40161;39.768;2.722;2023-01-26T00:25:08;101559.22;;;8.27;88.76
54248;BME280;40161;39.768;2.722;2023-01-26T00:27:34;101545.06;;;7.96;91.27
54248;BME280;40161;39.768;2.722;2023-01-26T00:30:00;101532.06;;;7.84;93.62
54248;BME280;40161;39.768;2.722;2023-01-26T00:32:25;101542.97;;;7.93;93.73
54248;BME280;40161;39.768;2.722;2023-01-26T00:34:51;101546.03;;;7.91;94.03
54248;BME280;40161;39.768;2.722;2023-01-26T00:37:17;101549.53;;;8.00;95.10
54248;BME280;40161;39.768;2.722;2023-01-26T00:39:42;101519.97;;;7.94;94.79
54248;BME280;40161;39.768;2.722;2023-01-26T00:42:10;101500.19;;;7.97;93.75
54248;BME280;40161;39.768;2.722;2023-01-26T00:44:41;101522.75;;;8.15;94.98
54248;BME280;40161;39.768;2.722;2023-01-26T00:47:08;101514.00;;;8.00;94.22
54248;BME280;40161;39.768;2.722;2023-01-26T00:49:34;101519.75;;;8.07;94.66
54248;BME280;40161;39.768;2.722;2023-01-26T00:52:00;101515.59;;;8.01;94.75
54248;BME280;40161;39.768;2.722;2023-01-26T00:54:27;101539.53;;;8.04;96.31
54248;BME280;40161;39.768;2.722;2023-01-26T00:56:53;101523.22;;;7.87;97.27
54248;BME280;40161;39.768;2.722;2023-01-26T00:59:19;101546.13;;;8.03;98.53
54248;BME280;40161;39.768;2.722;2023-01-26T01:01:45;101526.44;;;7.80;99.27
54248;BME280;40161;39.768;2.722;2023-01-26T01:04:11;101491.22;;;7.49;100.00
54248;BME280;40161;39.768;2.722;2023-01-26T01:06:36;101537.66;;;7.88;100.00
54248;BME280;40161;39.768;2.722;2023-01-26T01:09:02;101486.16;;;7.69;100.00
54248;BME280;40161;39.768;2.722;2023-01-26T01:11:28;101488.53;;;7.79;100.00
54248;BME280;40161;39.768;2.722;2023-01-26T01:13:53;101523.63;;;8.06;100.00
54248;BME280;40161;39.768;2.722;2023-01-26T01:16:19;101525.06;;;8.04;99.82
54248;BME280;40161;39.768;2.722;2023-01-26T01:18:44;101507.66;;;7.79;100.00
54248;BME280;40161;39.768;2.722;2023-01-26T01:21:13;101531.38;;;7.96;100.00
54248;BME280;40161;39.768;2.722;2023-01-26T01:23:40;101508.13;;;7.81;100.00
54248;BME280;40161;39.768;2.722;2023-01-26T01:26:06;101548.22;;;8.06;100.00
54248;BME280;40161;39.768;2.722;2023-01-26T01:28:33;101481.47;;;7.78;100.00
54248;BME280;40161;39.768;2.722;2023-01-26T01:31:06;101504.13;;;7.78;100.00
54248;BME280;40161;39.768;2.722;2023-01-26T01:33:32;101492.94;;;7.63;100.00
54248;BME280;40161;39.768;2.722;2023-01-26T01:35:58;101504.88;;;7.88;100.00
54248;BME280;40161;39.768;2.722;2023-01-26T01:38:25;101516.88;;;8.04;100.00
54248;BME280;40161;39.768;2.722;2023-01-26T01:40:52;101501.63;;;7.94;100.00
54248;BME280;40161;39.768;2.722;2023-01-26T01:43:17;101498.16;;;7.85;100.00
54248;BME280;40161;39.768;2.722;2023-01-26T01:45:45;101507.22;;;7.68;100.00
54248;BME280;40161;39.768;2.722;2023-01-26T01:50:51;101509.16;;;7.68;100.00
54248;BME280;40161;39.768;2.722;2023-01-26T01:53:21;101493.72;;;7.63;100.00
54248;BME280;40161;39.768;2.722;2023-01-26T01:56:01;101502.66;;;7.81;100.00
54248;BME280;40161;39.768;2.722;2023-01-26T01:58:29;101504.22;;;7.91;100.00
54248;BME280;40161;39.768;2.722;2023-01-26T02:00:56;101427.22;;;7.21;100.00
54248;BME280;40161;39.768;2.722;2023-01-26T02:03:24;101467.13;;;7.51;100.00
54248;BME280;40161;39.768;2.722;2023-01-26T02:08:44;101496.81;;;7.91;100.00
54248;BME280;40161;39.768;2.722;2023-01-26T02:11:13;101494.63;;;7.84;100.00
54248;BME280;40161;39.768;2.722;2023-01-26T02:13:42;101475.81;;;7.83;100.00
54248;BME280;40161;39.768;2.722;2023-01-26T02:16:08;101474.25;;;7.73;100.00
54248;BME280;40161;39.768;2.722;2023-01-26T02:18:34;101476.41;;;7.59;99.07
54248;BME280;40161;39.768;2.722;2023-01-26T02:21:09;101473.78;;;7.33;100.00
54248;BME280;40161;39.768;2.722;2023-01-26T02:26:22;101481.56;;;7.60;100.00
54248;BME280;40161;39.768;2.722;2023-01-26T02:28:48;101465.19;;;7.52;100.00
54248;BME280;40161;39.768;2.722;2023-01-26T02:31:14;101463.19;;;7.23;100.00
54248;BME280;40161;39.768;2.722;2023-01-26T02:33:40;101464.59;;;7.29;100.00
54248;BME280;40161;39.768;2.722;2023-01-26T02:36:25;101465.69;;;7.45;100.00
54248;BME280;40161;39.768;2.722;2023-01-26T02:41:38;101459.03;;;7.17;100.00
54248;BME280;40161;39.768;2.722;2023-01-26T02:44:23;101448.91;;;7.08;100.00
54248;BME280;40161;39.768;2.722;2023-01-26T02:46:48;101448.06;;;7.25;100.00
54248;BME280;40161;39.768;2.722;2023-01-26T02:49:14;101452.88;;;7.28;100.00
54248;BME280;40161;39.768;2.722;2023-01-26T02:51:58;101446.78;;;7.31;100.00
54248;BME280;40161;39.768;2.722;2023-01-26T02:54:23;101440.03;;;7.29;100.00
54248;BME280;40161;39.768;2.722;2023-01-26T02:57:07;101450.44;;;7.35;100.00
54248;BME280;40161;39.768;2.722;2023-01-26T02:59:33;101447.06;;;7.38;100.00
54248;BME280;40161;39.768;2.722;2023-01-26T03:01:58;101429.19;;;7.50;100.00
54248;BME280;40161;39.768;2.722;2023-01-26T03:04:24;101421.41;;;7.31;98.02
54248;BME280;40161;39.768;2.722;2023-01-26T03:06:50;101424.69;;;7.07;98.37
54248;BME280;40161;39.768;2.722;2023-01-26T03:09:16;101422.31;;;6.88;99.64
54248;BME280;40161;39.768;2.722;2023-01-26T03:11:41;101398.13;;;6.52;100.00
54248;BME280;40161;39.768;2.722;2023-01-26T03:14:11;101421.53;;;6.79;100.00
54248;BME280;40161;39.768;2.722;2023-01-26T03:16:37;101426.16;;;6.96;100.00
54248;BME280;40161;39.768;2.722;2023-01-26T03:19:05;101411.88;;;6.90;100.00
54248;BME280;40161;39.768;2.722;2023-01-26T03:21:33;101410.00;;;6.56;100.00
54248;BME280;40161;39.768;2.722;2023-01-26T03:24:17;101400.69;;;6.31;100.00
54248;BME280;40161;39.768;2.722;2023-01-26T03:27:01;101410.50;;;6.40;100.00
54248;BME280;40161;39.768;2.722;2023-01-26T03:29:45;101412.25;;;6.62;100.00
54248;BME280;40161;39.768;2.722;2023-01-26T03:32:11;101419.44;;;6.76;100.00
54248;BME280;40161;39.768;2.722;2023-01-26T03:34:36;101404.53;;;6.64;100.00
54248;BME280;40161;39.768;2.722;2023-01-26T03:37:02;101398.44;;;6.59;100.00
54248;BME280;40161;39.768;2.722;2023-01-26T03:39:28;101395.88;;;6.28;100.00
54248;BME280;40161;39.768;2.722;2023-01-26T03:42:12;101399.44;;;6.37;100.00
54248;BME280;40161;39.768;2.722;2023-01-26T03:44:56;101393.97;;;6.46;100.00
54248;BME280;40161;39.768;2.722;2023-01-26T03:47:40;101397.81;;;6.45;100.00
54248;BME280;40161;39.768;2.722;2023-01-26T03:50:24;101374.06;;;6.45;100.00
54248;BME280;40161;39.768;2.722;2023-01-26T03:53:13;101377.91;;;6.53;100.00
54248;BME280;40161;39.768;2.722;2023-01-26T03:55:57;101375.81;;;6.58;100.00
54248;BME280;40161;39.768;2.722;2023-01-26T03:58:41;101352.59;;;6.35;99.91
54248;BME280;40161;39.768;2.722;2023-01-26T04:01:06;101364.75;;;6.55;100.00
54248;BME280;40161;39.768;2.722;2023-01-26T04:03:35;101353.53;;;6.48;100.00
54248;BME280;40161;39.768;2.722;2023-01-26T04:06:19;101348.13;;;6.30;99.67
54248;BME280;40161;39.768;2.722;2023-01-26T04:09:03;101337.22;;;6.13;100.00
54248;BME280;40161;39.768;2.722;2023-01-26T04:11:29;101339.28;;;6.07;100.00
54248;BME280;40161;39.768;2.722;2023-01-26T04:13:54;101337.19;;;6.22;100.00
54248;BME280;40161;39.768;2.722;2023-01-26T04:16:38;101339.28;;;6.25;100.00
54248;BME280;40161;39.768;2.722;2023-01-26T04:19:22;101333.69;;;6.04;100.00
54248;BME280;40161;39.768;2.722;2023-01-26T04:22:06;101321.78;;;5.91;100.00
54248;BME280;40161;39.768;2.722;2023-01-26T04:24:31;101321.66;;;6.13;100.00
54248;BME280;40161;39.768;2.722;2023-01-26T04:26:57;101316.84;;;6.10;100.00
54248;BME280;40161;39.768;2.722;2023-01-26T04:29:22;101315.56;;;5.99;100.00
54248;BME280;40161;39.768;2.722;2023-01-26T04:31:48;101314.72;;;5.81;100.00
54248;BME280;40161;39.768;2.722;2023-01-26T04:34:14;101313.97;;;6.07;100.00
54248;BME280;40161;39.768;2.722;2023-01-26T04:36:40;101332.53;;;6.22;100.00
54248;BME280;40161;39.768;2.722;2023-01-26T04:39:06;101336.06;;;6.23;100.00
54248;BME280;40161;39.768;2.722;2023-01-26T04:41:32;101328.72;;;6.23;100.00
54248;BME280;40161;39.768;2.722;2023-01-26T04:43:58;101305.28;;;5.79;98.21
54248;BME280;40161;39.768;2.722;2023-01-26T04:46:24;101315.03;;;5.80;100.00
54248;BME280;40161;39.768;2.722;2023-01-26T04:48:50;101308.69;;;5.93;100.00
54248;BME280;40161;39.768;2.722;2023-01-26T04:51:18;101323.69;;;5.64;99.10
54248;BME280;40161;39.768;2.722;2023-01-26T04:53:45;101281.78;;;5.26;100.00
54248;BME280;40161;39.768;2.722;2023-01-26T04:56:21;101320.94;;;5.56;100.00
54248;BME280;40161;39.768;2.722;2023-01-26T04:58:47;101291.91;;;5.42;100.00
54248;BME280;40161;39.768;2.722;2023-01-26T05:01:13;101314.19;;;5.53;100.00
54248;BME280;40161;39.768;2.722;2023-01-26T05:03:38;101301.44;;;5.14;100.00
54248;BME280;40161;39.768;2.722;2023-01-26T05:06:04;101291.56;;;5.27;100.00
54248;BME280;40161;39.768;2.722;2023-01-26T05:08:30;101290.63;;;5.31;100.00
54248;BME280;40161;39.768;2.722;2023-01-26T05:10:55;101302.31;;;5.32;100.00
54248;BME280;40161;39.768;2.722;2023-01-26T05:13:21;101320.41;;;5.36;100.00
54248;BME280;40161;39.768;2.722;2023-01-26T05:15:46;101301.03;;;5.46;100.00
54248;BME280;40161;39.768;2.722;2023-01-26T05:18:12;101292.41;;;5.44;100.00
54248;BME280;40161;39.768;2.722;2023-01-26T05:20:38;101299.69;;;5.18;100.00
54248;BME280;40161;39.768;2.722;2023-01-26T05:23:03;101311.22;;;5.15;100.00
54248;BME280;40161;39.768;2.722;2023-01-26T05:25:29;101304.19;;;5.22;100.00
54248;BME280;40161;39.768;2.722;2023-01-26T05:27:55;101293.59;;;5.12;100.00
54248;BME280;40161;39.768;2.722;2023-01-26T05:30:20;101288.84;;;5.27;100.00
54248;BME280;40161;39.768;2.722;2023-01-26T05:32:46;101289.47;;;5.23;100.00
54248;BME280;40161;39.768;2.722;2023-01-26T05:35:11;101290.66;;;5.48;100.00
54248;BME280;40161;39.768;2.722;2023-01-26T05:37:37;101284.88;;;5.41;100.00
54248;BME280;40161;39.768;2.722;2023-01-26T05:40:03;101282.13;;;5.24;100.00
54248;BME280;40161;39.768;2.722;2023-01-26T05:42:29;101279.25;;;5.46;100.00
54248;BME280;40161;39.768;2.722;2023-01-26T05:44:54;101269.31;;;5.24;99.77
54248;BME280;40161;39.768;2.722;2023-01-26T05:47:20;101280.53;;;5.32;100.00
54248;BME280;40161;39.768;2.722;2023-01-26T05:49:45;101257.16;;;5.31;100.00
54248;BME280;40161;39.768;2.722;2023-01-26T05:52:14;101272.66;;;5.21;99.93
54248;BME280;40161;39.768;2.722;2023-01-26T05:54:40;101303.38;;;5.13;99.29
54248;BME280;40161;39.768;2.722;2023-01-26T05:57:06;101285.13;;;5.22;100.00
54248;BME280;40161;39.768;2.722;2023-01-26T05:59:31;101288.22;;;5.47;100.00
54248;BME280;40161;39.768;2.722;2023-01-26T06:01:57;101277.81;;;5.32;99.93
54248;BME280;40161;39.768;2.722;2023-01-26T06:04:23;101295.75;;;5.50;99.71
54248;BME280;40161;39.768;2.722;2023-01-26T06:06:52;101284.84;;;5.33;98.98
54248;BME280;40161;39.768;2.722;2023-01-26T06:09:18;101281.28;;;5.15;97.63
54248;BME280;40161;39.768;2.722;2023-01-26T06:11:44;101271.69;;;5.26;98.74
54248;BME280;40161;39.768;2.722;2023-01-26T06:14:10;101283.00;;;5.02;99.37
54248;BME280;40161;39.768;2.722;2023-01-26T06:16:35;101262.97;;;4.89;99.04
54248;BME280;40161;39.768;2.722;2023-01-26T06:19:01;101277.72;;;5.06;100.00
54248;BME280;40161;39.768;2.722;2023-01-26T06:21:27;101255.78;;;4.93;100.00
54248;BME280;40161;39.768;2.722;2023-01-26T06:23:53;101293.00;;;5.33;99.82
54248;BME280;40161;39.768;2.722;2023-01-26T06:26:19;101277.25;;;5.12;99.21
54248;BME280;40161;39.768;2.722;2023-01-26T06:28:44;101238.03;;;4.96;100.00
54248;BME280;40161;39.768;2.722;2023-01-26T06:31:10;101288.41;;;5.42;100.00
54248;BME280;40161;39.768;2.722;2023-01-26T06:33:36;101295.59;;;5.38;99.14
54248;BME280;40161;39.768;2.722;2023-01-26T06:36:04;101277.31;;;5.30;99.57
54248;BME280;40161;39.768;2.722;2023-01-26T06:38:30;101278.59;;;5.23;100.00
54248;BME280;40161;39.768;2.722;2023-01-26T06:41:04;101287.97;;;5.09;99.80
54248;BME280;40161;39.768;2.722;2023-01-26T06:43:32;101297.97;;;5.31;100.00
54248;BME280;40161;39.768;2.722;2023-01-26T06:45:58;101276.00;;;5.18;100.00
54248;BME280;40161;39.768;2.722;2023-01-26T06:48:24;101276.50;;;5.20;100.00
54248;BME280;40161;39.768;2.722;2023-01-26T06:50:51;101252.00;;;5.20;100.00
54248;BME280;40161;39.768;2.722;2023-01-26T06:53:33;101289.69;;;5.44;100.00
54248;BME280;40161;39.768;2.722;2023-01-26T06:55:59;101292.41;;;5.53;100.00
54248;BME280;40161;39.768;2.722;2023-01-26T06:58:24;101285.19;;;5.57;100.00
54248;BME280;40161;39.768;2.722;2023-01-26T07:00:51;101274.16;;;5.54;100.00
54248;BME280;40161;39.768;2.722;2023-01-26T07:03:16;101274.66;;;5.56;100.00
54248;BME280;40161;39.768;2.722;2023-01-26T07:05:42;101272.72;;;5.56;100.00
54248;BME280;40161;39.768;2.722;2023-01-26T07:08:07;101280.75;;;5.70;100.00
54248;BME280;40161;39.768;2.722;2023-01-26T07:10:36;101284.13;;;5.76;100.00
54248;BME280;40161;39.768;2.722;2023-01-26T07:13:03;101277.41;;;5.64;100.00
54248;BME280;40161;39.768;2.722;2023-01-26T07:15:29;101278.97;;;5.74;100.00
54248;BME280;40161;39.768;2.722;2023-01-26T07:17:56;101256.06;;;5.66;100.00
54248;BME280;40161;39.768;2.722;2023-01-26T07:20:21;101262.97;;;5.81;100.00
54248;BME280;40161;39.768;2.722;2023-01-26T07:22:47;101260.72;;;5.75;100.00
54248;BME280;40161;39.768;2.722;2023-01-26T07:25:12;101248.56;;;5.72;100.00
54248;BME280;40161;39.768;2.722;2023-01-26T07:27:38;101251.44;;;5.58;100.00
54248;BME280;40161;39.768;2.722;2023-01-26T07:30:04;101230.91;;;5.52;100.00
54248;BME280;40161;39.768;2.722;2023-01-26T07:32:30;101258.00;;;5.83;100.00
54248;BME280;40161;39.768;2.722;2023-01-26T07:34:56;101247.91;;;5.66;99.94
54248;BME280;40161;39.768;2.722;2023-01-26T07:37:21;101255.94;;;5.71;100.00
54248;BME280;40161;39.768;2.722;2023-01-26T07:39:47;101246.28;;;5.74;100.00
54248;BME280;40161;39.768;2.722;2023-01-26T07:42:13;101252.41;;;5.80;100.00
54248;BME280;40161;39.768;2.722;2023-01-26T07:44:39;101254.78;;;5.81;100.00
54248;BME280;40161;39.768;2.722;2023-01-26T07:47:04;101261.22;;;5.85;100.00
54248;BME280;40161;39.768;2.722;2023-01-26T07:49:30;101241.00;;;5.78;100.00
54248;BME280;40161;39.768;2.722;2023-01-26T07:51:56;101247.59;;;5.85;100.00
54248;BME280;40161;39.768;2.722;2023-01-26T07:54:21;101261.09;;;5.99;100.00
54248;BME280;40161;39.768;2.722;2023-01-26T07:56:51;101267.31;;;6.08;100.00
54248;BME280;40161;39.768;2.722;2023-01-26T07:59:17;101255.28;;;6.18;100.00
54248;BME280;40161;39.768;2.722;2023-01-26T08:01:42;101259.13;;;6.17;100.00
54248;BME280;40161;39.768;2.722;2023-01-26T08:04:08;101269.69;;;6.27;99.58
54248;BME280;40161;39.768;2.722;2023-01-26T08:06:33;101251.75;;;6.17;99.01
54248;BME280;40161;39.768;2.722;2023-01-26T08:08:59;101264.56;;;6.34;99.58
54248;BME280;40161;39.768;2.722;2023-01-26T08:11:24;101245.47;;;6.34;99.58
54248;BME280;40161;39.768;2.722;2023-01-26T08:13:51;101244.31;;;6.44;99.46
54248;BME280;40161;39.768;2.722;2023-01-26T08:16:17;101256.47;;;6.55;100.00
54248;BME280;40161;39.768;2.722;2023-01-26T08:18:45;101250.38;;;6.58;98.97
54248;BME280;40161;39.768;2.722;2023-01-26T08:21:14;101266.78;;;6.88;98.08
54248;BME280;40161;39.768;2.722;2023-01-26T08:23:40;101268.19;;;6.94;97.78
54248;BME280;40161;39.768;2.722;2023-01-26T08:26:11;101266.56;;;7.02;94.43
54248;BME280;40161;39.768;2.722;2023-01-26T08:28:38;101276.22;;;7.29;92.62
54248;BME280;40161;39.768;2.722;2023-01-26T08:31:11;101268.25;;;7.15;92.52
54248;BME280;40161;39.768;2.722;2023-01-26T08:33:39;101268.38;;;7.19;93.39
54248;BME280;40161;39.768;2.722;2023-01-26T08:36:07;101260.63;;;7.29;92.63
54248;BME280;40161;39.768;2.722;2023-01-26T08:38:33;101280.31;;;7.44;90.56
54248;BME280;40161;39.768;2.722;2023-01-26T08:41:00;101250.53;;;7.30;90.46
54248;BME280;40161;39.768;2.722;2023-01-26T08:43:26;101282.44;;;7.59;89.72
54248;BME280;40161;39.768;2.722;2023-01-26T08:45:52;101266.59;;;7.52;89.74
54248;BME280;40161;39.768;2.722;2023-01-26T08:48:18;101269.28;;;7.61;90.81
54248;BME280;40161;39.768;2.722;2023-01-26T08:50:44;101269.84;;;7.67;91.83
54248;BME280;40161;39.768;2.722;2023-01-26T08:53:10;101265.53;;;7.87;91.90
54248;BME280;40161;39.768;2.722;2023-01-26T08:55:35;101270.72;;;7.79;91.38
54248;BME280;40161;39.768;2.722;2023-01-26T08:58:01;101288.44;;;7.94;93.07
54248;BME280;40161;39.768;2.722;2023-01-26T09:00:27;101275.38;;;8.00;89.68
54248;BME280;40161;39.768;2.722;2023-01-26T09:03:03;101272.66;;;8.00;87.27
54248;BME280;40161;39.768;2.722;2023-01-26T09:05:37;101271.06;;;7.99;87.37
54248;BME280;40161;39.768;2.722;2023-01-26T09:08:04;101287.03;;;8.30;86.72
54248;BME280;40161;39.768;2.722;2023-01-26T09:10:30;101273.69;;;8.07;89.93
54248;BME280;40161;39.768;2.722;2023-01-26T09:12:56;101288.38;;;8.03;92.36
54248;BME280;40161;39.768;2.722;2023-01-26T09:15:22;101272.13;;;8.06;92.83
54248;BME280;40161;39.768;2.722;2023-01-26T09:17:48;101274.97;;;8.10;92.19
54248;BME280;40161;39.768;2.722;2023-01-26T09:20:14;101289.69;;;8.18;91.47
54248;BME280;40161;39.768;2.722;2023-01-26T09:22:40;101284.44;;;8.13;91.26
54248;BME280;40161;39.768;2.722;2023-01-26T09:25:07;101275.69;;;8.19;91.51
54248;BME280;40161;39.768;2.722;2023-01-26T09:27:33;101274.69;;;8.24;90.78
54248;BME280;40161;39.768;2.722;2023-01-26T09:29:58;101269.22;;;8.24;91.42
54248;BME280;40161;39.768;2.722;2023-01-26T09:32:24;101278.75;;;8.39;91.65
54248;BME280;40161;39.768;2.722;2023-01-26T09:34:50;101282.41;;;8.43;90.97
54248;BME280;40161;39.768;2.722;2023-01-26T09:37:15;101290.53;;;8.51;91.20
54248;BME280;40161;39.768;2.722;2023-01-26T09:39:42;101287.13;;;8.54;90.32
54248;BME280;40161;39.768;2.722;2023-01-26T09:42:31;101291.00;;;8.66;90.67
54248;BME280;40161;39.768;2.722;2023-01-26T09:48:08;101298.56;;;8.93;90.76
54248;BME280;40161;39.768;2.722;2023-01-26T09:50:42;101274.28;;;8.92;91.30
54248;BME280;40161;39.768;2.722;2023-01-26T09:53:17;101291.06;;;9.15;91.80
54248;BME280;40161;39.768;2.722;2023-01-26T09:55:47;101272.00;;;9.06;91.26
54248;BME280;40161;39.768;2.722;2023-01-26T09:58:16;101296.31;;;9.20;90.89
54248;BME280;40161;39.768;2.722;2023-01-26T10:00:49;101269.28;;;9.06;90.71
54248;BME280;40161;39.768;2.722;2023-01-26T10:03:43;101291.97;;;9.31;90.39
54248;BME280;40161;39.768;2.722;2023-01-26T10:06:17;101299.16;;;9.36;89.07
54248;BME280;40161;39.768;2.722;2023-01-26T10:08:46;101285.69;;;9.31;85.02
54248;BME280;40161;39.768;2.722;2023-01-26T10:11:17;101298.00;;;9.49;84.32
54248;BME280;40161;39.768;2.722;2023-01-26T10:13:56;101284.88;;;9.42;81.39
54248;BME280;40161;39.768;2.722;2023-01-26T10:16:23;101272.22;;;9.50;81.13
54248;BME280;40161;39.768;2.722;2023-01-26T10:18:56;101279.47;;;9.70;78.89
54248;BME280;40161;39.768;2.722;2023-01-26T10:21:29;101294.81;;;9.87;75.01
54248;BME280;40161;39.768;2.722;2023-01-26T10:23:59;101285.13;;;9.90;74.99
54248;BME280;40161;39.768;2.722;2023-01-26T10:26:29;101277.34;;;9.92;73.47
54248;BME280;40161;39.768;2.722;2023-01-26T10:28:55;101297.06;;;10.10;72.79
54248;BME280;40161;39.768;2.722;2023-01-26T10:31:28;101284.22;;;10.14;71.76
54248;BME280;40161;39.768;2.722;2023-01-26T10:33:59;101266.44;;;10.08;71.79
54248;BME280;40161;39.768;2.722;2023-01-26T10:36:31;101268.78;;;9.93;68.79
54248;BME280;40161;39.768;2.722;2023-01-26T10:39:07;101282.84;;;10.20;67.30
54248;BME280;40161;39.768;2.722;2023-01-26T10:41:34;101283.03;;;10.39;68.26
54248;BME280;40161;39.768;2.722;2023-01-26T10:46:39;101276.47;;;10.44;70.71
54248;BME280;40161;39.768;2.722;2023-01-26T10:51:37;101242.03;;;10.47;70.47
54248;BME280;40161;39.768;2.722;2023-01-26T10:54:21;101275.25;;;10.73;70.39
54248;BME280;40161;39.768;2.722;2023-01-26T10:56:53;101271.19;;;10.83;70.48
54248;BME280;40161;39.768;2.722;2023-01-26T10:59:34;101270.31;;;10.79;70.26
54248;BME280;40161;39.768;2.722;2023-01-26T11:05:00;101251.53;;;10.65;68.08
54248;BME280;40161;39.768;2.722;2023-01-26T11:07:38;101252.84;;;10.71;70.34
54248;BME280;40161;39.768;2.722;2023-01-26T11:12:42;101230.19;;;10.74;70.49
54248;BME280;40161;39.768;2.722;2023-01-26T11:15:19;101249.84;;;10.92;70.78
54248;BME280;40161;39.768;2.722;2023-01-26T11:18:12;101242.09;;;11.49;65.81
54248;BME280;40161;39.768;2.722;2023-01-26T11:28:41;101230.41;;;11.01;68.35
54248;BME280;40161;39.768;2.722;2023-01-26T11:39:30;101214.22;;;10.80;69.98
54248;BME280;40161;39.768;2.722;2023-01-26T11:47:33;101209.00;;;10.59;71.97
54248;BME280;40161;39.768;2.722;2023-01-26T11:52:50;101195.03;;;10.48;73.95
54248;BME280;40161;39.768;2.722;2023-01-26T11:58:03;101188.28;;;10.45;73.05
54248;BME280;40161;39.768;2.722;2023-01-26T12:00:41;101185.63;;;10.49;73.58
54248;BME280;40161;39.768;2.722;2023-01-26T12:03:29;101178.56;;;10.48;72.82
54248;BME280;40161;39.768;2.722;2023-01-26T12:06:04;101157.06;;;10.50;72.97
54248;BME280;40161;39.768;2.722;2023-01-26T12:08:52;101168.81;;;10.66;72.11
54248;BME280;40161;39.768;2.722;2023-01-26T12:11:41;101172.63;;;10.62;72.36
54248;BME280;40161;39.768;2.722;2023-01-26T12:17:12;101172.53;;;10.58;72.78
54248;BME280;40161;39.768;2.722;2023-01-26T12:22:34;101148.03;;;10.50;72.63
54248;BME280;40161;39.768;2.722;2023-01-26T12:25:53;101172.25;;;10.79;71.63
54248;BME280;40161;39.768;2.722;2023-01-26T12:30:45;101145.75;;;10.36;72.73
54248;BME280;40161;39.768;2.722;2023-01-26T12:33:12;101139.72;;;10.30;73.00
54248;BME280;40161;39.768;2.722;2023-01-26T12:38:18;101123.59;;;10.44;71.43
54248;BME280;40161;39.768;2.722;2023-01-26T12:43:26;101139.59;;;10.58;71.33
54248;BME280;40161;39.768;2.722;2023-01-26T12:46:00;101110.25;;;10.43;71.20
54248;BME280;40161;39.768;2.722;2023-01-26T12:49:16;101121.91;;;10.56;72.60
54248;BME280;40161;39.768;2.722;2023-01-26T12:51:23;101124.94;;;10.51;71.66
54248;BME280;40161;39.768;2.722;2023-01-26T12:54:09;101123.34;;;10.50;73.14
54248;BME280;40161;39.768;2.722;2023-01-26T12:56:48;101112.81;;;10.36;72.68
54248;BME280;40161;39.768;2.722;2023-01-26T12:59:30;101098.38;;;10.39;73.22
54248;BME280;40161;39.768;2.722;2023-01-26T13:01:57;101097.94;;;10.37;73.73
54248;BME280;40161;39.768;2.722;2023-01-26T13:04:23;101098.38;;;10.39;74.52
54248;BME280;40161;39.768;2.722;2023-01-26T13:07:03;101100.94;;;10.48;73.17
54248;BME280;40161;39.768;2.722;2023-01-26T13:09:36;101089.75;;;10.56;71.55
54248;BME280;40161;39.768;2.722;2023-01-26T13:12:02;101083.56;;;10.59;72.66
54248;BME280;40161;39.768;2.722;2023-01-26T13:24:56;101086.69;;;10.58;73.09
54248;BME280;40161;39.768;2.722;2023-01-26T13:27:56;101073.22;;;10.53;72.27
54248;BME280;40161;39.768;2.722;2023-01-26T13:35:41;101057.59;;;10.37;72.23
54248;BME280;40161;39.768;2.722;2023-01-26T13:38:19;101063.94;;;10.41;72.55
54248;BME280;40161;39.768;2.722;2023-01-26T13:40:48;101065.53;;;10.42;72.04
54248;BME280;40161;39.768;2.722;2023-01-26T13:48:40;101063.59;;;10.43;71.22
54248;BME280;40161;39.768;2.722;2023-01-26T13:51:07;101047.63;;;10.64;72.35
54248;BME280;40161;39.768;2.722;2023-01-26T13:53:40;101061.28;;;10.80;72.39
54248;BME280;40161;39.768;2.722;2023-01-26T13:56:31;101058.22;;;10.66;73.84
54248;BME280;40161;39.768;2.722;2023-01-26T13:59:13;101065.41;;;10.71;75.00
54248;BME280;40161;39.768;2.722;2023-01-26T14:01:45;101060.81;;;10.59;75.87
54248;BME280;40161;39.768;2.722;2023-01-26T14:04:25;101061.81;;;10.51;74.86
54248;BME280;40161;39.768;2.722;2023-01-26T14:07:12;101069.19;;;10.31;74.35
54248;BME280;40161;39.768;2.722;2023-01-26T14:09:44;101063.41;;;10.20;73.94
54248;BME280;40161;39.768;2.722;2023-01-26T14:12:42;101075.41;;;9.84;75.21
54248;BME280;40161;39.768;2.722;2023-01-26T14:15:29;101064.97;;;9.58;78.88
54248;BME280;40161;39.768;2.722;2023-01-26T14:20:34;101062.25;;;9.30;84.48
54248;BME280;40161;39.768;2.722;2023-01-26T14:25:35;101079.59;;;8.93;90.86
54248;BME280;40161;39.768;2.722;2023-01-26T14:28:02;101075.63;;;8.78;92.77
54248;BME280;40161;39.768;2.722;2023-01-26T14:30:31;101081.78;;;8.75;94.29
54248;BME280;40161;39.768;2.722;2023-01-26T14:33:18;101088.53;;;8.78;96.19
54248;BME280;40161;39.768;2.722;2023-01-26T14:36:01;101095.00;;;8.73;96.38
54248;BME280;40161;39.768;2.722;2023-01-26T14:38:30;101100.38;;;8.70;98.04